Time;durP1;ratioP1;P1;durP2;ratioP2;P2;SDS_P1;SDS_P2;PMS_P1;PMS_P2;Temp;Humidity;BMP_temperature;BMP_pressure;BME280_temperature;BME280_humidity;BME280_pressure;Samples;Min_cycle;Max_cycle;Signal;HPM_P1;HPM_P2
2020/12/08 00:00:26;;;;;;;21.63;14.93;;;;;;;-0.16;68.11;98429.16;2162104;82;21147;-78
2020/12/08 00:03:29;;;;;;;25.13;15.27;;;;;;;-0.25;68.38;98427.84;2162054;82;21138;-77
2020/12/08 00:06:30;;;;;;;28.03;17.13;;;;;;;-0.34;68.64;98427.89;2162144;82;21117;-78
2020/12/08 00:09:32;;;;;;;30.40;17.43;;;;;;;-0.38;68.91;98434.08;2162045;82;21241;-79
2020/12/08 00:12:39;;;;;;;25.80;15.70;;;;;;;-0.47;68.96;98429.80;2162349;82;21531;-77
2020/12/08 00:15:40;;;;;;;26.33;15.90;;;;;;;-0.51;68.93;98438.14;2161675;82;21229;-77
2020/12/08 00:18:41;;;;;;;26.20;15.00;;;;;;;-0.57;69.21;98438.72;2162289;82;21162;-78
2020/12/08 00:21:42;;;;;;;29.43;15.93;;;;;;;-0.56;69.43;98445.61;2162036;82;21111;-78
2020/12/08 00:24:43;;;;;;;29.13;15.70;;;;;;;-0.50;69.66;98439.90;2162391;82;21516;-75
2020/12/08 00:27:44;;;;;;;23.57;14.43;;;;;;;-0.52;69.72;98428.69;2162382;82;21237;-78
2020/12/08 00:30:45;;;;;;;22.73;13.40;;;;;;;-0.61;70.06;98430.81;2162163;82;21236;-78
2020/12/08 00:33:46;;;;;;;23.57;15.20;;;;;;;-0.67;70.19;98434.84;2162306;82;21221;-78
2020/12/08 00:36:53;;;;;;;26.33;15.90;;;;;;;-0.72;70.42;98429.89;2162649;82;21244;-79
2020/12/08 00:39:54;;;;;;;24.27;14.17;;;;;;;-0.76;70.67;98433.50;2162579;82;21127;-80
2020/12/08 00:42:55;;;;;;;26.13;14.97;;;;;;;-0.77;70.66;98432.63;2154893;82;21143;-79
2020/12/08 00:45:56;;;;;;;30.43;16.17;;;;;;;-0.79;70.42;98430.39;2150993;83;21107;-79
2020/12/08 00:48:57;;;;;;;26.40;15.33;;;;;;;-0.84;70.71;98432.25;2152404;82;21108;-79
2020/12/08 00:55:16;;;;;;;45.70;27.90;;;;;;;1.43;82.76;98424.63;2207827;79;22443;-75
2020/12/08 00:58:17;;;;;;;26.13;15.80;;;;;;;3.88;65.50;98427.16;2163481;81;21143;-75
2020/12/08 01:01:18;;;;;;;23.80;14.93;;;;;;;2.39;62.67;98433.16;2162197;82;21147;-75
2020/12/08 01:04:19;;;;;;;24.03;14.70;;;;;;;1.27;64.71;98437.27;2161999;82;21728;-75
2020/12/08 01:07:21;;;;;;;27.10;15.23;;;;;;;0.60;66.42;98443.34;2160867;82;21146;-75
2020/12/08 01:10:22;;;;;;;23.60;14.90;;;;;;;0.19;67.49;98437.23;2161780;82;21122;-75
2020/12/08 01:13:23;;;;;;;27.70;15.27;;;;;;;-0.14;68.35;98441.65;2161206;82;21185;-75
2020/12/08 01:16:24;;;;;;;28.77;16.33;;;;;;;-0.35;69.51;98436.38;2161887;82;21134;-75
2020/12/08 01:19:25;;;;;;;25.60;15.27;;;;;;;-0.51;69.76;98424.04;2161759;82;21244;-75
2020/12/08 01:22:26;;;;;;;28.03;15.27;;;;;;;-0.66;70.19;98437.00;2161281;82;21154;-75
2020/12/08 01:25:27;;;;;;;23.20;14.90;;;;;;;-0.74;70.79;98435.34;2161463;82;21162;-75
2020/12/08 01:28:29;;;;;;;23.20;13.93;;;;;;;-0.84;71.57;98439.94;2162377;82;21106;-75
2020/12/08 01:31:30;;;;;;;25.77;15.07;;;;;;;-0.90;71.22;98435.75;2161844;82;21440;-75
2020/12/08 01:34:31;;;;;;;25.67;14.47;;;;;;;-0.94;71.99;98441.13;2162096;82;21158;-75
2020/12/08 01:37:33;;;;;;;23.90;14.60;;;;;;;-1.03;72.11;98440.66;2162342;82;21134;-75
2020/12/08 01:40:34;;;;;;;28.13;16.17;;;;;;;-1.09;72.26;98434.83;2162475;82;21127;-75
2020/12/08 01:43:37;;;;;;;27.83;15.10;;;;;;;-1.08;72.62;98440.84;2162247;82;21159;-76
2020/12/08 01:46:38;;;;;;;20.90;13.73;;;;;;;-1.12;72.87;98438.92;2162508;82;21146;-75
2020/12/08 01:49:39;;;;;;;26.80;14.43;;;;;;;-1.15;73.10;98430.69;2162016;82;21408;-75
2020/12/08 01:52:40;;;;;;;22.90;14.07;;;;;;;-1.17;73.02;98437.81;2162052;82;21174;-75
2020/12/08 01:55:41;;;;;;;19.83;13.43;;;;;;;-1.18;72.96;98436.93;2162469;82;21158;-75
2020/12/08 01:58:42;;;;;;;23.97;14.17;;;;;;;-1.16;72.63;98443.41;2162460;82;21399;-75
2020/12/08 02:01:43;;;;;;;26.47;14.57;;;;;;;-1.18;72.86;98445.89;2162201;82;21135;-74
2020/12/08 02:04:45;;;;;;;22.80;13.90;;;;;;;-1.14;72.77;98449.49;2161943;82;21150;-75
2020/12/08 02:07:49;;;;;;;20.57;12.60;;;;;;;-1.18;72.79;98443.73;2161663;82;21261;-75
2020/12/08 02:10:50;;;;;;;24.05;14.87;;;;;;;-1.21;73.30;98446.14;2161773;82;21544;-76
2020/12/08 02:13:51;;;;;;;24.00;14.10;;;;;;;-1.18;73.47;98446.30;2161414;82;21309;-75
2020/12/08 02:16:55;;;;;;;25.97;14.47;;;;;;;-1.15;73.24;98443.48;2161659;82;21277;-74
2020/12/08 02:19:56;;;;;;;22.03;13.37;;;;;;;-1.21;73.10;98440.61;2161529;82;21153;-75
2020/12/08 02:22:57;;;;;;;19.00;11.97;;;;;;;-1.22;73.35;98445.26;2160611;82;21265;-75
2020/12/08 02:25:58;;;;;;;21.17;13.07;;;;;;;-1.25;72.98;98442.94;2161299;82;21269;-75
2020/12/08 02:28:59;;;;;;;21.43;12.00;;;;;;;-1.31;73.42;98437.98;2161586;82;21154;-75
2020/12/08 02:32:00;;;;;;;21.30;12.57;;;;;;;-1.36;73.15;98444.55;2161337;82;21126;-74
2020/12/08 02:35:04;;;;;;;19.57;11.90;;;;;;;-1.40;73.46;98445.59;2161639;82;21305;-75
2020/12/08 02:38:05;;;;;;;18.63;12.10;;;;;;;-1.46;73.35;98437.20;2161966;82;21131;-75
2020/12/08 02:41:06;;;;;;;17.30;10.70;;;;;;;-1.51;73.76;98437.36;2161757;82;21138;-75
2020/12/08 02:44:07;;;;;;;22.57;11.93;;;;;;;-1.55;73.83;98436.72;2161454;82;21528;-76
2020/12/08 02:47:08;;;;;;;23.33;13.70;;;;;;;-1.60;74.11;98442.00;2161592;82;21253;-76
2020/12/08 02:50:09;;;;;;;21.40;12.73;;;;;;;-1.55;74.27;98440.95;2161730;82;21111;-76
2020/12/08 02:53:10;;;;;;;19.10;12.67;;;;;;;-1.62;74.74;98450.88;2161072;81;21534;-76
2020/12/08 02:56:11;;;;;;;19.83;11.53;;;;;;;-1.67;74.76;98452.70;2152687;82;21123;-75
2020/12/08 02:59:15;;;;;;;27.57;17.30;;;;;;;-1.68;74.98;98444.15;2151386;82;21424;-76
2020/12/08 03:02:16;;;;;;;19.17;11.37;;;;;;;-1.68;74.98;98444.15;2150967;82;21380;-75
2020/12/08 03:05:17;;;;;;;23.40;11.77;;;;;;;-1.67;74.83;98443.75;2150314;82;21127;-75
2020/12/08 03:08:18;;;;;;;22.30;13.53;;;;;;;-1.70;75.04;98444.47;2150402;82;21596;-75
2020/12/08 03:11:19;;;;;;;17.70;12.17;;;;;;;-1.59;75.31;98450.16;2150669;82;21373;-74
2020/12/08 03:14:20;;;;;;;21.17;12.93;;;;;;;-1.54;75.23;98449.12;2150017;82;21138;-75
2020/12/08 03:17:21;;;;;;;21.90;13.83;;;;;;;-1.54;75.25;98442.72;2151093;82;21184;-75
2020/12/08 03:20:22;;;;;;;20.10;12.37;;;;;;;-1.50;74.77;98444.23;2151473;82;21091;-74
2020/12/08 03:23:23;;;;;;;18.40;11.90;;;;;;;-1.49;74.81;98442.55;2150972;82;21107;-76
2020/12/08 03:26:24;;;;;;;21.20;11.07;;;;;;;-1.39;75.03;98441.83;2151116;82;21131;-76
2020/12/08 03:29:25;;;;;;;18.07;11.43;;;;;;;-1.44;74.41;98437.27;2151111;82;21100;-75
2020/12/08 03:32:26;;;;;;;20.27;12.60;;;;;;;-1.47;74.59;98440.55;2150307;82;21167;-76
2020/12/08 03:35:27;;;;;;;25.20;13.87;;;;;;;-1.41;75.07;98447.27;2150547;82;21123;-75
2020/12/08 03:38:28;;;;;;;18.57;11.03;;;;;;;-1.44;74.55;98443.67;2150907;82;21107;-75
2020/12/08 03:41:29;;;;;;;19.73;12.80;;;;;;;-1.41;74.50;98450.23;2150961;82;21071;-75
2020/12/08 03:44:30;;;;;;;18.00;11.90;;;;;;;-1.45;74.24;98455.59;2150572;82;21123;-76
2020/12/08 03:47:32;;;;;;;23.90;12.03;;;;;;;-1.48;74.25;98454.16;2150714;82;21147;-75
2020/12/08 03:50:33;;;;;;;19.30;11.50;;;;;;;-1.51;74.16;98448.88;2150512;82;21115;-75
2020/12/08 03:53:34;;;;;;;19.60;11.63;;;;;;;-1.51;74.22;98457.83;2150797;82;21178;-75
2020/12/08 03:56:35;;;;;;;20.83;12.20;;;;;;;-1.50;74.57;98454.47;2150726;82;21107;-75
2020/12/08 03:59:36;;;;;;;18.30;11.77;;;;;;;-1.48;74.33;98450.72;2150653;82;21220;-75
2020/12/08 04:02:37;;;;;;;22.20;13.57;;;;;;;-1.51;74.27;98455.67;2151002;82;21126;-76
2020/12/08 04:05:38;;;;;;;17.83;11.63;;;;;;;-1.53;74.48;98454.72;2151171;83;21381;-75
2020/12/08 04:08:39;;;;;;;18.80;11.67;;;;;;;-1.52;74.52;98461.20;2151477;82;21126;-76
2020/12/08 04:11:40;;;;;;;22.37;11.27;;;;;;;-1.53;74.60;98455.99;2151152;82;21392;-75
2020/12/08 04:14:42;;;;;;;22.13;12.30;;;;;;;-1.51;74.41;98460.80;2150729;82;21479;-75
2020/12/08 04:17:43;;;;;;;20.50;11.90;;;;;;;-1.47;74.20;98466.55;2151277;82;21393;-75
2020/12/08 04:20:45;;;;;;;17.83;11.27;;;;;;;-1.46;74.16;98467.91;2151349;83;21123;-75
2020/12/08 04:23:45;;;;;;;21.93;12.83;;;;;;;-1.50;73.53;98465.99;2151091;82;21134;-76
2020/12/08 04:26:53;;;;;;;18.17;11.67;;;;;;;-1.52;73.77;98459.91;2151108;82;21126;-76
2020/12/08 04:29:54;;;;;;;20.10;11.00;;;;;;;-1.49;73.96;98464.31;2150906;83;21277;-75
2020/12/08 04:32:55;;;;;;;20.07;11.00;;;;;;;-1.49;74.07;98462.63;2150509;82;21464;-76
2020/12/08 04:35:56;;;;;;;20.40;11.83;;;;;;;-1.53;73.74;98456.88;2149751;82;21126;-75
2020/12/08 04:38:58;;;;;;;20.90;12.70;;;;;;;-1.58;73.80;98451.91;2150237;82;21157;-75
2020/12/08 04:41:59;;;;;;;22.20;12.43;;;;;;;-1.56;73.77;98453.27;2149447;82;21127;-75
2020/12/08 04:45:00;;;;;;;18.87;11.87;;;;;;;-1.59;73.51;98453.99;2148939;82;21261;-75
2020/12/08 04:48:01;;;;;;;19.73;11.87;;;;;;;-1.59;73.72;98460.39;2148603;82;21127;-75
2020/12/08 04:51:03;;;;;;;18.87;11.40;;;;;;;-1.59;73.72;98460.39;2148679;82;21115;-75
2020/12/08 04:54:04;;;;;;;19.97;11.83;;;;;;;-1.61;73.75;98464.15;2148624;82;21154;-74
2020/12/08 04:57:05;;;;;;;20.70;12.10;;;;;;;-1.55;74.15;98473.83;2148218;82;21099;-75
2020/12/08 05:00:06;;;;;;;19.67;11.80;;;;;;;-1.55;74.15;98473.83;2148431;82;21397;-75
2020/12/08 05:03:07;;;;;;;22.43;12.90;;;;;;;-1.50;73.76;98467.27;2147844;82;21224;-75
2020/12/08 05:06:08;;;;;;;20.77;12.97;;;;;;;-1.48;73.64;98463.52;2148189;83;21285;-77
2020/12/08 05:09:10;;;;;;;19.17;11.90;;;;;;;0.88;77.64;98451.88;2148868;82;21127;-75
2020/12/08 05:12:11;;;;;;;17.73;11.13;;;;;;;0.94;70.04;98449.58;2148761;83;21603;-75
2020/12/08 05:15:12;;;;;;;18.43;11.37;;;;;;;0.14;68.96;98450.66;2148937;82;21367;-75
2020/12/08 05:18:13;;;;;;;18.80;11.97;;;;;;;-0.36;70.20;98449.14;2148627;82;21091;-76
2020/12/08 05:21:14;;;;;;;17.80;11.10;;;;;;;-0.64;70.76;98453.33;2148286;82;21222;-75
2020/12/08 05:24:15;;;;;;;21.13;13.17;;;;;;;-0.84;71.16;98461.31;2148686;82;21289;-75
2020/12/08 05:27:16;;;;;;;19.83;11.73;;;;;;;-0.96;71.38;98458.11;2149129;82;21115;-75
2020/12/08 05:30:18;;;;;;;21.53;11.77;;;;;;;-1.06;71.30;98473.81;2149442;82;21429;-75
2020/12/08 05:33:19;;;;;;;20.10;12.10;;;;;;;-1.10;71.76;98479.18;2148924;82;21337;-75
2020/12/08 05:36:20;;;;;;;17.73;11.87;;;;;;;-1.10;71.83;98471.89;2147999;82;21253;-76
2020/12/08 05:39:22;;;;;;;19.37;12.53;;;;;;;-1.10;71.98;98478.30;2148873;82;21132;-75
2020/12/08 05:42:23;;;;;;;18.07;12.03;;;;;;;-1.16;71.69;98475.02;2148694;82;21305;-75
2020/12/08 05:45:24;;;;;;;18.13;10.40;;;;;;;-1.20;71.68;98485.91;2148854;82;21246;-75
2020/12/08 05:48:25;;;;;;;18.13;10.37;;;;;;;-1.26;71.74;98477.03;2148337;83;21528;-76
2020/12/08 05:51:26;;;;;;;24.07;12.97;;;;;;;-1.21;76.13;98478.16;2148570;82;21253;-75
2020/12/08 05:54:27;;;;;;;18.50;11.00;;;;;;;2.41;76.80;98466.70;2155432;82;21150;-77
2020/12/08 05:57:28;;;;;;;18.37;12.80;;;;;;;1.85;64.44;98454.69;2171104;82;21467;-77
2020/12/08 06:00:29;;;;;;;18.27;11.87;;;;;;;0.74;66.99;98466.66;2157750;82;21234;-77
2020/12/08 06:03:30;;;;;;;17.40;11.50;;;;;;;0.17;67.90;98477.75;2157931;82;21454;-77
2020/12/08 06:06:32;;;;;;;16.27;11.53;;;;;;;-0.20;68.46;98478.56;2158298;82;21298;-76
2020/12/08 06:09:34;;;;;;;18.73;11.17;;;;;;;-0.55;69.02;98478.14;2158198;82;21138;-76
2020/12/08 06:12:35;;;;;;;19.03;10.87;;;;;;;-0.72;69.59;98488.84;2157360;82;21249;-76
2020/12/08 06:15:36;;;;;;;18.47;11.00;;;;;;;-0.92;69.85;98493.73;2158257;82;21273;-76
2020/12/08 06:18:37;;;;;;;16.90;10.60;;;;;;;-1.05;70.43;98494.78;2158374;82;21095;-76
2020/12/08 06:21:38;;;;;;;17.03;10.27;;;;;;;-1.04;70.55;98497.83;2158231;82;21268;-76
2020/12/08 06:24:40;;;;;;;19.20;12.10;;;;;;;-1.12;70.80;98496.16;2158599;82;21146;-76
2020/12/08 06:27:41;;;;;;;16.90;10.43;;;;;;;-1.14;70.89;98502.00;2158326;82;21126;-76
2020/12/08 06:30:42;;;;;;;16.30;11.03;;;;;;;-1.10;71.13;98503.91;2157400;82;21190;-75
2020/12/08 06:33:43;;;;;;;18.90;11.73;;;;;;;-1.12;71.03;98501.67;2157029;82;21491;-75
2020/12/08 06:36:44;;;;;;;18.07;10.73;;;;;;;-1.16;71.06;98510.88;2157918;82;21142;-75
2020/12/08 06:39:45;;;;;;;18.97;10.77;;;;;;;-1.19;71.30;98522.25;2158530;82;21146;-76
2020/12/08 06:42:46;;;;;;;15.07;10.13;;;;;;;-1.18;71.31;98512.88;2158032;82;21139;-75
2020/12/08 06:45:47;;;;;;;17.13;11.20;;;;;;;-1.18;71.36;98523.13;2158077;82;21095;-76
2020/12/08 06:48:48;;;;;;;17.43;11.33;;;;;;;-1.15;71.57;98516.88;2158186;82;21440;-75
2020/12/08 06:51:49;;;;;;;17.10;9.83;;;;;;;-1.12;71.27;98504.23;2157404;82;21268;-75
2020/12/08 06:54:50;;;;;;;18.47;11.07;;;;;;;-1.15;71.03;98492.16;2156987;82;21289;-75
2020/12/08 06:57:52;;;;;;;20.87;11.97;;;;;;;-1.16;71.27;98502.31;2150549;81;21663;-75
2020/12/08 07:00:54;;;;;;;18.00;11.23;;;;;;;-1.18;71.18;98515.45;2147624;82;21241;-76
2020/12/08 07:03:55;;;;;;;13.50;9.57;;;;;;;-1.20;71.09;98515.36;2131579;83;21258;-75
2020/12/08 07:06:56;;;;;;;22.57;12.33;;;;;;;-1.16;71.22;98522.41;2143990;83;21253;-74
2020/12/08 07:09:57;;;;;;;14.73;10.70;;;;;;;-1.13;71.15;98522.97;2144935;83;21504;-74
2020/12/08 07:12:58;;;;;;;19.30;11.83;;;;;;;-1.09;70.79;98524.48;2146667;83;21304;-74
2020/12/08 07:15:59;;;;;;;19.73;11.77;;;;;;;-1.06;70.99;98521.20;2148521;82;21752;-76
2020/12/08 07:19:00;;;;;;;18.13;11.60;;;;;;;-1.02;71.08;98520.56;2148306;83;21824;-75
2020/12/08 07:22:02;;;;;;;16.83;11.67;;;;;;;-0.91;71.08;98523.67;2148342;83;21249;-76
2020/12/08 07:25:04;;;;;;;20.07;11.90;;;;;;;-0.82;70.79;98527.62;2147768;83;21884;-75
2020/12/08 07:28:05;;;;;;;16.40;11.23;;;;;;;-0.76;69.94;98535.62;2148582;82;21304;-74
2020/12/08 07:31:07;;;;;;;16.63;11.77;;;;;;;-0.78;70.19;98540.19;2147394;83;21261;-77
2020/12/08 07:34:08;;;;;;;19.03;11.43;;;;;;;-0.80;70.19;98537.55;2147352;82;21666;-74
2020/12/08 07:37:09;;;;;;;15.20;11.73;;;;;;;-0.76;69.96;98529.21;2147317;82;21115;-75
2020/12/08 07:40:10;;;;;;;18.53;10.40;;;;;;;-0.71;70.19;98539.30;2146767;83;21235;-76
2020/12/08 07:43:11;;;;;;;15.30;9.87;;;;;;;-0.63;72.02;98534.55;2148188;83;21301;-74
2020/12/08 07:46:12;;;;;;;19.90;12.67;;;;;;;-0.45;69.46;98541.88;2148562;82;21119;-74
2020/12/08 07:49:13;;;;;;;20.17;12.23;;;;;;;-0.58;69.04;98534.38;2147935;83;21598;-77
2020/12/08 07:52:14;;;;;;;14.50;10.10;;;;;;;-0.63;69.47;98538.80;2147629;83;21239;-77
2020/12/08 07:55:15;;;;;;;18.23;10.83;;;;;;;-0.60;69.93;98543.68;2154453;82;21843;-77
2020/12/08 07:58:17;;;;;;;17.40;11.27;;;;;;;-0.54;69.38;98548.23;2161992;82;21249;-76
2020/12/08 08:01:18;;;;;;;244.87;162.83;;;;;;;-0.58;69.33;98552.33;2157991;82;21870;-76
2020/12/08 08:04:19;;;;;;;26.60;16.27;;;;;;;-0.54;69.53;98566.18;2157704;82;21258;-76
2020/12/08 08:07:20;;;;;;;18.07;11.77;;;;;;;-0.48;69.40;98563.92;2158277;82;21833;-77
2020/12/08 08:10:21;;;;;;;18.37;12.40;;;;;;;-0.43;69.25;98558.63;2158140;82;21242;-76
2020/12/08 08:13:22;;;;;;;16.17;11.20;;;;;;;-0.43;69.01;98554.38;2157772;82;21598;-76
2020/12/08 08:16:23;;;;;;;16.57;12.17;;;;;;;-0.38;69.09;98563.58;2158494;82;21256;-77
2020/12/08 08:19:24;;;;;;;19.60;11.57;;;;;;;-0.24;69.79;98563.86;2158474;82;21222;-78
2020/12/08 08:22:26;;;;;;;18.87;11.13;;;;;;;-0.17;68.97;98556.95;2157420;82;21192;-77
2020/12/08 08:25:27;;;;;;;17.60;12.57;;;;;;;-0.12;68.79;98555.48;2156486;82;21265;-77
2020/12/08 08:28:28;;;;;;;20.30;10.93;;;;;;;-0.13;68.43;98548.59;2157322;82;21277;-76
2020/12/08 08:31:29;;;;;;;19.03;11.87;;;;;;;-0.12;68.62;98542.66;2158167;82;21699;-75
2020/12/08 08:34:30;;;;;;;15.87;10.93;;;;;;;-0.05;68.59;98541.27;2157077;82;21285;-75
2020/12/08 08:37:32;;;;;;;14.63;9.80;;;;;;;-0.02;68.27;98535.00;2158351;82;21272;-75
2020/12/08 08:40:33;;;;;;;18.77;10.20;;;;;;;-0.02;67.67;98541.02;2157627;82;21229;-76
2020/12/08 08:43:34;;;;;;;19.33;12.07;;;;;;;-0.04;68.35;98544.31;2157498;82;21261;-74
2020/12/08 08:46:35;;;;;;;17.13;11.47;;;;;;;0.00;68.60;98539.84;2157295;82;21279;-76
2020/12/08 08:49:36;;;;;;;17.67;11.57;;;;;;;0.08;68.38;98549.19;2157981;82;21184;-74
2020/12/08 08:52:37;;;;;;;15.80;11.07;;;;;;;0.11;68.10;98548.92;2156850;82;21241;-76
2020/12/08 08:55:39;;;;;;;15.33;11.13;;;;;;;0.13;68.19;98555.02;2157261;82;21269;-75
2020/12/08 08:58:40;;;;;;;17.60;12.13;;;;;;;0.18;68.10;98560.36;2157049;82;21253;-75
2020/12/08 09:01:42;;;;;;;18.43;12.27;;;;;;;0.17;67.55;98556.04;2156479;82;21293;-76
2020/12/08 09:04:43;;;;;;;18.00;11.57;;;;;;;0.17;67.52;98554.75;2149273;82;21269;-75
2020/12/08 09:07:45;;;;;;;20.53;12.23;;;;;;;0.28;69.28;98554.86;2147133;83;21257;-76
2020/12/08 09:10:46;;;;;;;18.83;13.27;;;;;;;0.33;67.89;98552.10;2146732;83;21273;-75
2020/12/08 09:13:48;;;;;;;18.63;12.43;;;;;;;0.30;67.82;98551.96;2146978;83;21294;-75
2020/12/08 09:16:49;;;;;;;19.77;13.20;;;;;;;0.33;67.77;98548.25;2146579;83;21265;-76
2020/12/08 09:19:50;;;;;;;22.03;13.07;;;;;;;0.35;67.81;98560.76;2147216;83;21088;-76
2020/12/08 09:22:51;;;;;;;20.27;13.17;;;;;;;0.39;67.63;98560.50;2147590;82;21262;-76
2020/12/08 09:25:53;;;;;;;21.87;12.97;;;;;;;0.43;67.56;98567.13;2147231;83;21960;-75
2020/12/08 09:28:55;;;;;;;19.43;13.07;;;;;;;0.46;67.51;98570.25;2147531;83;21579;-75
2020/12/08 09:31:56;;;;;;;20.77;13.60;;;;;;;0.49;67.06;98562.28;2146899;83;21286;-76
2020/12/08 09:34:57;;;;;;;22.27;13.47;;;;;;;0.44;67.08;98561.59;2146814;83;21330;-76
2020/12/08 09:37:58;;;;;;;19.53;11.93;;;;;;;0.56;67.24;98564.73;2147881;82;21630;-76
2020/12/08 09:40:59;;;;;;;19.40;11.97;;;;;;;0.59;67.06;98571.30;2148015;83;21226;-75
2020/12/08 09:44:00;;;;;;;23.73;13.97;;;;;;;0.68;66.77;98555.42;2147531;82;21273;-76
2020/12/08 09:47:02;;;;;;;18.40;14.07;;;;;;;0.77;66.92;98568.69;2147891;82;21810;-76
2020/12/08 09:50:03;;;;;;;23.90;13.83;;;;;;;0.83;66.99;98567.68;2148327;83;21979;-76
2020/12/08 09:53:04;;;;;;;24.27;13.57;;;;;;;1.01;66.92;98571.52;2148490;83;21293;-76
2020/12/08 09:56:05;;;;;;;26.60;14.27;;;;;;;1.11;66.24;98570.70;2155433;82;21756;-75
2020/12/08 09:59:06;;;;;;;23.30;12.97;;;;;;;1.16;66.46;98569.22;2163562;82;21233;-75
2020/12/08 10:02:07;;;;;;;19.73;13.27;;;;;;;1.20;65.86;98575.37;2157135;82;21264;-76
2020/12/08 10:05:09;;;;;;;21.33;13.40;;;;;;;1.21;65.81;98574.16;2157280;82;21234;-76
2020/12/08 10:08:10;;;;;;;24.90;13.50;;;;;;;1.32;65.40;98582.34;2157213;82;21921;-75
2020/12/08 10:11:13;;;;;;;23.17;14.27;;;;;;;1.34;64.42;98572.12;2158398;82;21253;-76
2020/12/08 10:14:14;;;;;;;18.00;13.23;;;;;;;1.31;65.18;98562.98;2158445;82;21630;-76
2020/12/08 10:17:15;;;;;;;24.63;14.60;;;;;;;1.35;65.31;98558.45;2158852;82;21733;-76
2020/12/08 10:20:16;;;;;;;21.27;13.20;;;;;;;1.41;65.13;98560.87;2158784;82;21084;-76
2020/12/08 10:23:17;;;;;;;22.00;14.30;;;;;;;1.43;65.10;98557.08;2157794;82;21541;-76
2020/12/08 10:26:19;;;;;;;24.43;14.27;;;;;;;1.47;65.18;98572.71;2158089;82;21257;-76
2020/12/08 10:29:20;;;;;;;23.87;13.63;;;;;;;1.44;64.42;98565.27;2158550;82;21329;-75
2020/12/08 10:35:42;;;;;;;23.77;16.27;;;;;;;1.57;65.27;98563.70;2392175;74;22210;-75
2020/12/08 10:38:43;;;;;;;23.47;16.07;;;;;;;1.67;64.46;98561.98;2339506;75;21279;-75
2020/12/08 10:41:45;;;;;;;25.63;15.10;;;;;;;1.71;63.92;98559.13;2328010;75;21192;-75
2020/12/08 10:44:46;;;;;;;22.37;15.70;;;;;;;1.76;64.61;98554.67;2342375;75;21611;-75
2020/12/08 10:47:47;;;;;;;43.90;27.53;;;;;;;1.82;63.54;98544.64;2335182;75;21149;-75
2020/12/08 10:50:48;;;;;;;24.27;16.97;;;;;;;1.94;64.26;98556.25;2350532;75;21260;-76
2020/12/08 10:53:49;;;;;;;27.50;16.70;;;;;;;2.07;64.50;98557.22;2356971;75;21149;-75
2020/12/08 10:56:50;;;;;;;29.77;16.63;;;;;;;2.30;64.25;98552.98;2321737;75;21267;-75
2020/12/08 10:59:51;;;;;;;26.40;15.47;;;;;;;2.26;63.08;98545.55;2339892;75;21437;-77
2020/12/08 11:02:53;;;;;;;25.57;14.77;;;;;;;2.14;62.72;98542.48;2330054;75;21286;-77
2020/12/08 11:05:54;;;;;;;27.10;17.27;;;;;;;2.10;63.15;98544.47;2331472;75;21152;-77
2020/12/08 11:08:55;;;;;;;23.37;15.30;;;;;;;2.08;63.63;98561.14;2326602;75;21157;-77
2020/12/08 11:11:56;;;;;;;18.83;13.27;;;;;;;2.12;63.27;98549.27;2343667;75;21098;-75
2020/12/08 11:14:57;;;;;;;31.57;16.07;;;;;;;2.12;63.06;98546.69;2343025;75;21286;-76
2020/12/08 11:17:59;;;;;;;24.70;15.83;;;;;;;2.06;63.73;98555.45;2321810;75;21144;-78
2020/12/08 11:21:01;;;;;;;24.70;16.40;;;;;;;2.10;63.87;98541.89;2336621;75;21132;-77
2020/12/08 11:24:02;;;;;;;27.90;15.40;;;;;;;2.03;63.17;98550.19;2324876;75;21564;-78
2020/12/08 11:27:04;;;;;;;22.83;15.90;;;;;;;1.88;63.57;98541.44;2344679;75;21455;-77
2020/12/08 11:30:05;;;;;;;24.73;16.13;;;;;;;1.80;63.75;98536.38;2351799;75;21263;-78
2020/12/08 11:33:06;;;;;;;29.00;16.17;;;;;;;1.77;63.81;98551.70;2326799;75;21283;-78
2020/12/08 11:36:07;;;;;;;20.63;15.27;;;;;;;1.80;64.51;98557.84;2355368;75;21275;-78
2020/12/08 11:39:08;;;;;;;23.87;14.90;;;;;;;1.89;64.24;98562.50;2349097;75;21140;-78
2020/12/08 11:42:12;;;;;;;26.77;16.80;;;;;;;1.99;64.61;98563.34;2348102;75;21093;-78
2020/12/08 11:45:12;;;;;;;25.00;16.10;;;;;;;2.10;64.30;98556.05;2348700;75;21125;-78
2020/12/08 11:48:13;;;;;;;23.57;15.90;;;;;;;2.14;64.17;98570.40;2342794;75;21271;-78
2020/12/08 11:51:14;;;;;;;22.33;16.00;;;;;;;2.19;64.20;98564.14;2314359;75;21228;-78
2020/12/08 11:54:16;;;;;;;26.23;16.27;;;;;;;2.36;64.35;98552.81;2313009;75;21607;-76
2020/12/08 11:57:17;;;;;;;26.87;16.33;;;;;;;2.44;63.06;98547.55;2340071;75;21275;-74
2020/12/08 12:00:18;;;;;;;25.17;16.47;;;;;;;2.54;64.15;98553.53;2319197;75;21279;-77
2020/12/08 12:03:19;;;;;;;26.47;15.97;;;;;;;2.63;63.36;98543.14;2354248;75;21259;-77
2020/12/08 12:06:20;;;;;;;25.40;15.93;;;;;;;2.58;62.75;98537.77;2355374;75;21267;-77
2020/12/08 12:09:21;;;;;;;26.17;17.20;;;;;;;2.56;62.89;98549.31;2344072;75;21470;-77
2020/12/08 12:12:22;;;;;;;27.90;16.93;;;;;;;2.53;62.79;98547.91;2338036;75;21278;-77
2020/12/08 12:15:23;;;;;;;26.43;16.50;;;;;;;2.47;63.29;98542.52;2339860;75;21291;-78
2020/12/08 12:18:24;;;;;;;28.27;16.80;;;;;;;2.47;63.26;98532.63;2355764;75;21149;-77
2020/12/08 12:21:26;;;;;;;26.20;16.90;;;;;;;2.47;63.03;98528.34;2344689;75;21125;-78
2020/12/08 12:24:27;;;;;;;22.57;14.83;;;;;;;2.39;63.37;98536.59;2355796;75;21141;-76
2020/12/08 12:27:28;;;;;;;25.03;16.20;;;;;;;2.34;63.40;98532.56;2332401;75;21263;-78
2020/12/08 12:30:29;;;;;;;24.37;16.53;;;;;;;2.30;63.18;98524.24;2343786;75;21275;-77
2020/12/08 12:33:31;;;;;;;27.07;16.97;;;;;;;2.32;63.76;98530.73;2324268;75;21267;-79
2020/12/08 12:36:32;;;;;;;29.43;16.87;;;;;;;2.37;63.76;98542.98;2313766;75;21128;-77
2020/12/08 12:39:33;;;;;;;26.13;17.00;;;;;;;2.46;64.10;98545.91;2327392;75;21266;-78
2020/12/08 12:42:34;;;;;;;27.27;16.70;;;;;;;2.55;63.62;98555.28;2350408;75;21572;-78
2020/12/08 12:45:35;;;;;;;35.70;18.70;;;;;;;2.58;63.46;98547.20;2342575;75;21307;-77
2020/12/08 12:48:36;;;;;;;26.20;16.10;;;;;;;2.41;63.39;98546.14;2354932;75;21267;-77
2020/12/08 12:51:37;;;;;;;27.07;17.13;;;;;;;2.35;63.67;98557.50;2326849;75;21153;-77
2020/12/08 12:54:39;;;;;;;22.20;14.53;;;;;;;2.31;63.40;98550.47;2336516;75;21263;-77
2020/12/08 12:57:40;;;;;;;39.17;23.70;;;;;;;2.25;63.79;98560.53;2354809;75;21145;-77
2020/12/08 13:00:41;;;;;;;30.53;18.83;;;;;;;2.23;63.90;98556.60;2332294;75;21608;-78
2020/12/08 13:03:42;;;;;;;28.03;16.27;;;;;;;2.21;64.16;98558.64;2353661;75;21478;-77
2020/12/08 13:06:44;;;;;;;27.47;17.03;;;;;;;2.15;64.27;98556.70;2351986;75;21256;-77
2020/12/08 13:09:45;;;;;;;27.03;16.53;;;;;;;2.14;64.25;98574.27;2336226;75;21280;-78
2020/12/08 13:12:46;;;;;;;26.17;16.37;;;;;;;2.14;64.16;98574.67;2342876;75;21314;-78
2020/12/08 13:15:47;;;;;;;24.07;15.47;;;;;;;1.98;64.26;98571.88;2337183;75;21191;-78
2020/12/08 13:18:48;;;;;;;26.73;17.87;;;;;;;1.87;64.63;98568.87;2339498;75;21746;-78
2020/12/08 13:21:50;;;;;;;31.80;18.10;;;;;;;1.82;64.87;98565.63;2314177;75;21247;-77
2020/12/08 13:28:08;;;;;;;24.67;15.43;;;;;;;1.72;65.09;98585.33;2256530;79;22988;-75
2020/12/08 13:31:09;;;;;;;25.23;16.10;;;;;;;1.63;65.36;98589.68;2224556;80;21248;-73
2020/12/08 13:34:10;;;;;;;25.90;15.83;;;;;;;1.58;65.39;98588.61;2222757;80;21899;-74
2020/12/08 13:37:11;;;;;;;30.67;17.77;;;;;;;1.53;65.67;98579.81;2223805;80;21264;-75
2020/12/08 13:40:12;;;;;;;27.37;15.47;;;;;;;1.47;65.69;98566.69;2224296;80;21244;-75
2020/12/08 13:43:14;;;;;;;29.43;16.77;;;;;;;1.39;65.84;98562.91;2224249;80;21244;-75
2020/12/08 13:46:15;;;;;;;28.60;14.87;;;;;;;1.31;66.00;98565.55;2223562;80;21299;-75
2020/12/08 13:49:16;;;;;;;28.27;17.17;;;;;;;1.26;66.24;98571.38;2224541;80;21268;-76
2020/12/08 13:52:17;;;;;;;23.47;15.10;;;;;;;1.23;66.34;98584.50;2225662;80;21762;-76
2020/12/08 13:55:18;;;;;;;28.50;17.70;;;;;;;1.18;66.53;98579.16;2225359;80;21256;-74
2020/12/08 13:58:21;;;;;;;28.47;15.97;;;;;;;1.12;66.56;98583.16;2225173;80;21264;-75
2020/12/08 14:01:22;;;;;;;29.60;17.70;;;;;;;1.17;68.65;98579.09;2224013;80;21264;-76
2020/12/08 14:04:23;;;;;;;30.60;15.53;;;;;;;1.25;66.44;98582.88;2222979;80;21267;-75
2020/12/08 14:07:25;;;;;;;28.33;16.90;;;;;;;1.06;66.52;98578.62;2223574;80;21661;-74